createdAt,value
2018-04-29T00:00:46.496Z,0.00
2018-04-29T00:01:46.667Z,0.00
2018-04-29T00:02:46.770Z,0.00
2018-04-29T00:03:46.913Z,0.00
2018-04-29T00:04:47.052Z,0.00
2018-04-29T00:05:47.208Z,0.00
2018-04-29T00:06:47.341Z,0.00
2018-04-29T00:07:47.474Z,0.00
2018-04-29T00:08:47.607Z,0.00
2018-04-29T00:09:48.777Z,0.00
2018-04-29T00:10:47.922Z,0.00
2018-04-29T00:11:48.056Z,0.00
2018-04-29T00:12:48.189Z,0.00
2018-04-29T00:13:48.340Z,0.00
2018-04-29T00:14:48.475Z,0.00
2018-04-29T00:15:48.610Z,0.00
2018-04-29T00:16:48.752Z,0.00
2018-04-29T00:17:48.928Z,0.00
2018-04-29T00:18:49.105Z,0.00
2018-04-29T00:19:49.123Z,0.00
2018-04-29T00:20:49.260Z,0.00
2018-04-29T00:21:49.429Z,0.00
2018-04-29T00:22:49.553Z,0.00
2018-04-29T00:23:49.694Z,0.00
2018-04-29T00:24:49.832Z,0.00
2018-04-29T00:25:49.983Z,0.00
2018-04-29T00:26:50.119Z,0.00
2018-04-29T00:27:50.255Z,0.00
2018-04-29T00:28:50.390Z,0.00
2018-04-29T00:29:50.521Z,0.00
2018-04-29T00:30:51.284Z,0.00
2018-04-29T00:31:50.813Z,0.00
2018-04-29T00:32:51.008Z,0.00
2018-04-29T00:33:51.093Z,0.00
2018-04-29T00:34:51.247Z,0.00
2018-04-29T00:35:51.378Z,0.00
2018-04-29T00:36:51.516Z,0.00
2018-04-29T00:37:51.656Z,0.00
2018-04-29T00:38:51.791Z,0.00
2018-04-29T00:39:51.923Z,0.00
2018-04-29T00:40:52.066Z,0.00
2018-04-29T00:41:52.199Z,0.00
2018-04-29T00:42:52.343Z,0.00
2018-04-29T00:43:52.484Z,0.00
2018-04-29T00:44:52.618Z,0.00
2018-04-29T00:45:52.752Z,0.00
2018-04-29T00:46:52.882Z,0.00
2018-04-29T00:47:53.028Z,0.00
2018-04-29T00:48:53.168Z,0.00
2018-04-29T00:49:53.307Z,0.00
2018-04-29T00:50:53.492Z,0.00
2018-04-29T00:51:53.585Z,0.00
2018-04-29T00:52:53.728Z,0.00
2018-04-29T00:53:53.862Z,0.00
2018-04-29T00:54:54.003Z,0.00
2018-04-29T00:55:54.141Z,0.00
2018-04-29T00:56:54.280Z,0.00
2018-04-29T00:57:54.419Z,0.00
2018-04-29T00:58:54.557Z,0.00
2018-04-29T00:59:54.693Z,0.00
2018-04-29T01:00:54.837Z,0.00
2018-04-29T01:01:54.962Z,0.00
2018-04-29T01:02:55.105Z,0.00
2018-04-29T01:03:55.249Z,0.00
2018-04-29T01:04:55.417Z,0.00
2018-04-29T01:05:55.645Z,0.00
2018-04-29T01:06:55.692Z,0.00
2018-04-29T01:07:55.831Z,0.00
2018-04-29T01:08:55.971Z,0.00
2018-04-29T01:09:56.104Z,0.00
2018-04-29T01:10:56.253Z,0.00
2018-04-29T01:11:57.284Z,0.00
2018-04-29T01:12:56.540Z,0.00
2018-04-29T01:13:56.665Z,0.00
2018-04-29T01:14:56.796Z,0.00
2018-04-29T01:15:56.935Z,0.00
2018-04-29T01:16:57.105Z,0.00
2018-04-29T01:17:57.240Z,0.00
2018-04-29T01:18:57.375Z,0.00
2018-04-29T01:19:57.517Z,0.00
2018-04-29T01:20:57.708Z,0.00
2018-04-29T01:21:57.815Z,0.00
2018-04-29T01:22:57.951Z,0.00
2018-04-29T01:23:58.088Z,0.00
2018-04-29T01:24:58.232Z,0.00
2018-04-29T01:25:58.373Z,0.00
2018-04-29T01:26:58.517Z,0.00
2018-04-29T01:27:58.643Z,0.00
2018-04-29T01:28:58.794Z,0.00
2018-04-29T01:29:58.922Z,0.00
2018-04-29T01:30:59.061Z,0.00
2018-04-29T01:31:59.209Z,0.00
2018-04-29T01:32:59.373Z,0.00
2018-04-29T01:33:59.506Z,0.00
2018-04-29T01:34:59.647Z,0.00
2018-04-29T01:35:59.791Z,0.00
2018-04-29T01:36:59.972Z,0.00
2018-04-29T01:38:00.108Z,0.00
2018-04-29T01:39:00.244Z,0.00
2018-04-29T01:40:00.379Z,0.00
2018-04-29T01:41:00.518Z,0.00
2018-04-29T01:42:00.651Z,0.00
2018-04-29T01:43:00.788Z,0.00
2018-04-29T01:44:00.980Z,0.00
2018-04-29T01:45:01.136Z,0.00
2018-04-29T01:46:01.262Z,0.00
2018-04-29T01:47:01.401Z,0.00
2018-04-29T01:48:01.578Z,0.00
2018-04-29T01:49:01.705Z,0.00
2018-04-29T01:50:01.849Z,0.00
2018-04-29T01:51:01.987Z,0.00
2018-04-29T01:52:02.121Z,0.00
2018-04-29T01:53:02.257Z,0.00
2018-04-29T01:54:02.393Z,0.00
2018-04-29T01:55:02.537Z,0.00
2018-04-29T01:56:02.690Z,0.00
2018-04-29T01:57:02.820Z,0.00
2018-04-29T01:58:02.957Z,0.00
2018-04-29T01:59:03.103Z,0.00
2018-04-29T02:00:03.245Z,0.00
2018-04-29T02:01:03.377Z,0.00
2018-04-29T02:02:03.510Z,0.00
2018-04-29T02:03:03.641Z,0.00
2018-04-29T02:04:03.778Z,0.00
2018-04-29T02:05:03.915Z,0.00
2018-04-29T02:06:04.061Z,0.00
2018-04-29T02:07:04.205Z,0.00
2018-04-29T02:08:04.339Z,0.00
2018-04-29T02:09:04.473Z,0.00
2018-04-29T02:10:04.607Z,0.00
2018-04-29T02:11:04.748Z,0.00
2018-04-29T02:12:04.881Z,0.00
2018-04-29T02:13:05.024Z,0.00
2018-04-29T02:14:05.157Z,0.00
2018-04-29T02:15:05.296Z,0.00
2018-04-29T02:16:05.430Z,0.00
2018-04-29T02:17:05.569Z,0.00
2018-04-29T02:18:05.705Z,0.00
2018-04-29T02:19:05.844Z,0.00
2018-04-29T02:20:05.979Z,0.00
2018-04-29T02:21:06.111Z,0.00
2018-04-29T02:22:06.247Z,0.00
2018-04-29T02:23:06.416Z,0.00
2018-04-29T02:24:06.540Z,0.00
2018-04-29T02:25:06.677Z,0.00
2018-04-29T02:26:06.833Z,0.00
2018-04-29T02:27:06.954Z,0.00
2018-04-29T02:28:07.092Z,0.00
2018-04-29T02:29:07.251Z,0.00
2018-04-29T02:30:07.392Z,0.00
2018-04-29T02:31:07.519Z,0.00
2018-04-29T02:32:07.665Z,0.00
2018-04-29T02:33:07.813Z,0.00
2018-04-29T02:34:07.946Z,0.00
2018-04-29T02:35:08.084Z,0.00
2018-04-29T02:36:08.224Z,0.00
2018-04-29T02:37:08.367Z,0.00
2018-04-29T02:38:08.495Z,0.00
2018-04-29T02:39:08.635Z,0.00
2018-04-29T02:40:08.773Z,0.00
2018-04-29T02:41:08.925Z,0.00
2018-04-29T02:42:09.063Z,0.00
2018-04-29T02:43:09.206Z,0.00
2018-04-29T02:44:09.815Z,0.00
2018-04-29T02:46:41.375Z,0.00
2018-04-29T02:47:41.507Z,0.00
2018-04-29T02:48:41.641Z,0.00
2018-04-29T02:49:41.784Z,0.00
2018-04-29T02:50:41.922Z,0.00
2018-04-29T02:51:42.051Z,0.00
2018-04-29T02:52:42.191Z,0.00
2018-04-29T02:53:42.329Z,0.00
2018-04-29T02:54:42.489Z,0.00
2018-04-29T02:55:42.621Z,0.00
2018-04-29T02:56:42.754Z,0.00
2018-04-29T02:57:42.892Z,0.00
2018-04-29T02:58:43.050Z,0.00
2018-04-29T02:59:43.185Z,0.00
2018-04-29T03:00:43.334Z,0.00
2018-04-29T03:01:43.458Z,0.00
2018-04-29T03:02:43.641Z,0.00
2018-04-29T03:03:43.766Z,0.00
2018-04-29T03:04:43.906Z,0.00
2018-04-29T03:05:44.051Z,0.00
2018-04-29T03:06:44.200Z,0.00
2018-04-29T03:07:44.335Z,0.00
2018-04-29T03:08:44.476Z,0.00
2018-04-29T03:09:44.612Z,0.00
2018-04-29T03:10:44.743Z,0.00
2018-04-29T03:11:44.885Z,0.00
2018-04-29T03:12:45.019Z,0.00
2018-04-29T03:13:45.161Z,0.00
2018-04-29T03:14:45.309Z,0.00
2018-04-29T03:15:45.438Z,0.00
2018-04-29T03:16:45.577Z,0.00
2018-04-29T03:17:45.709Z,0.00
2018-04-29T03:18:45.848Z,0.00
2018-04-29T03:19:45.980Z,0.00
2018-04-29T03:20:46.112Z,0.00
2018-04-29T03:21:46.256Z,0.00
2018-04-29T03:22:46.393Z,0.00
2018-04-29T03:23:46.533Z,0.00
2018-04-29T03:24:46.672Z,0.00
2018-04-29T03:25:46.811Z,0.00
2018-04-29T03:26:46.954Z,0.00
2018-04-29T03:27:47.086Z,0.00
2018-04-29T03:28:47.220Z,0.00
2018-04-29T03:29:47.353Z,0.00
2018-04-29T03:30:47.485Z,0.00
2018-04-29T03:31:47.624Z,0.00
2018-04-29T03:32:47.758Z,0.00
2018-04-29T03:33:47.899Z,0.00
2018-04-29T03:34:48.038Z,0.00
2018-04-29T03:35:48.173Z,0.00
2018-04-29T03:36:48.304Z,0.00
2018-04-29T03:37:48.442Z,0.00
2018-04-29T03:38:48.588Z,0.00
2018-04-29T03:39:48.723Z,0.00
2018-04-29T03:40:48.876Z,0.00
2018-04-29T03:41:49.007Z,0.00
2018-04-29T03:42:49.141Z,0.00
2018-04-29T03:43:49.276Z,0.00
2018-04-29T03:44:49.409Z,0.00
2018-04-29T03:45:49.547Z,0.00
2018-04-29T03:46:49.683Z,0.00
2018-04-29T03:47:49.816Z,0.00
2018-04-29T03:48:49.947Z,0.00
2018-04-29T03:49:50.107Z,0.00
2018-04-29T03:50:50.236Z,0.00
2018-04-29T03:51:50.372Z,0.00
2018-04-29T03:52:50.504Z,0.00
2018-04-29T03:53:50.644Z,0.00
2018-04-29T03:54:50.777Z,0.00
2018-04-29T03:55:50.947Z,0.00
2018-04-29T03:56:51.082Z,0.00
2018-04-29T03:57:51.218Z,0.00
2018-04-29T03:58:51.356Z,0.00
2018-04-29T03:59:51.506Z,0.00
2018-04-29T04:00:51.637Z,0.00
2018-04-29T04:01:51.783Z,0.00
2018-04-29T04:02:51.991Z,0.00
2018-04-29T04:03:52.061Z,0.00
2018-04-29T04:04:52.197Z,0.00
2018-04-29T04:05:52.335Z,5.63
2018-04-29T04:06:52.464Z,5.63
2018-04-29T04:07:52.619Z,5.63
2018-04-29T04:08:52.753Z,5.63
2018-04-29T04:09:52.887Z,5.63
2018-04-29T04:10:53.032Z,5.63
2018-04-29T04:11:53.161Z,5.63
2018-04-29T04:12:53.339Z,5.63
2018-04-29T04:13:53.537Z,5.63
2018-04-29T04:14:53.641Z,5.63
2018-04-29T04:15:53.775Z,5.63
2018-04-29T04:16:53.915Z,5.63
2018-04-29T04:17:54.052Z,11.25
2018-04-29T04:18:54.187Z,11.25
2018-04-29T04:19:54.315Z,11.25
2018-04-29T04:20:54.445Z,11.25
2018-04-29T04:21:54.597Z,11.25
2018-04-29T04:22:54.725Z,11.25
2018-04-29T04:23:54.865Z,11.25
2018-04-29T04:24:54.999Z,11.25
2018-04-29T04:25:55.201Z,11.25
2018-04-29T04:26:55.312Z,11.25
2018-04-29T04:27:55.496Z,11.25
2018-04-29T04:28:55.661Z,11.25
2018-04-29T04:29:55.789Z,16.88
2018-04-29T04:30:55.926Z,16.88
2018-04-29T04:31:56.070Z,16.88
2018-04-29T04:32:56.227Z,16.88
2018-04-29T04:33:56.355Z,16.88
2018-04-29T04:34:56.493Z,16.88
2018-04-29T04:35:56.626Z,16.88
2018-04-29T04:36:56.781Z,16.88
2018-04-29T04:37:56.945Z,22.50
2018-04-29T04:38:57.071Z,22.50
2018-04-29T04:39:58.029Z,22.50
2018-04-29T04:40:57.380Z,22.50
2018-04-29T04:41:57.515Z,22.50
2018-04-29T04:42:58.525Z,22.50
2018-04-29T04:43:57.835Z,28.13
2018-04-29T04:44:57.967Z,28.13
2018-04-29T04:45:58.103Z,28.13
2018-04-29T04:46:58.243Z,28.13
2018-04-29T04:47:58.376Z,28.13
2018-04-29T04:48:58.510Z,33.75
2018-04-29T04:49:58.651Z,33.75
2018-04-29T04:50:58.782Z,33.75
2018-04-29T04:51:58.918Z,39.38
2018-04-29T04:52:59.059Z,39.38
2018-04-29T04:53:59.191Z,45.00
2018-04-29T04:54:59.327Z,50.63
2018-04-29T04:55:59.457Z,50.63
2018-04-29T04:56:59.603Z,50.63
2018-04-29T04:57:59.735Z,50.63
2018-04-29T04:58:59.875Z,50.63
2018-04-29T05:00:00.012Z,56.25
2018-04-29T05:01:00.145Z,56.25
2018-04-29T05:02:00.278Z,56.25
2018-04-29T05:03:00.413Z,56.25
2018-04-29T05:04:00.549Z,56.25
2018-04-29T05:05:00.688Z,56.25
2018-04-29T05:06:00.819Z,56.25
2018-04-29T05:07:00.957Z,56.25
2018-04-29T05:08:01.081Z,56.25
2018-04-29T05:09:01.285Z,56.25
2018-04-29T05:10:01.296Z,56.25
2018-04-29T05:11:01.429Z,56.25
2018-04-29T05:12:01.563Z,56.25
2018-04-29T05:13:01.696Z,56.25
2018-04-29T05:14:01.826Z,56.25
2018-04-29T05:15:01.964Z,50.63
2018-04-29T05:16:02.102Z,56.25
2018-04-29T05:17:02.245Z,56.25
2018-04-29T05:18:02.384Z,61.88
2018-04-29T05:19:02.519Z,61.88
2018-04-29T05:20:02.652Z,67.50
2018-04-29T05:21:02.787Z,67.50
2018-04-29T05:22:02.921Z,67.50
2018-04-29T05:23:03.065Z,67.50
2018-04-29T05:24:03.193Z,73.13
2018-04-29T05:25:03.365Z,73.13
2018-04-29T05:26:03.489Z,73.13
2018-04-29T05:27:03.630Z,73.13
2018-04-29T05:28:03.761Z,73.13
2018-04-29T05:29:03.915Z,73.13
2018-04-29T05:30:04.047Z,73.13
2018-04-29T05:31:04.186Z,78.75
2018-04-29T05:32:04.321Z,78.75
2018-04-29T05:33:04.464Z,78.75
2018-04-29T05:34:04.597Z,78.75
2018-04-29T05:35:04.735Z,78.75
2018-04-29T05:36:04.872Z,78.75
2018-04-29T05:37:05.036Z,78.75
2018-04-29T05:38:05.211Z,78.75
2018-04-29T05:39:05.355Z,78.75
2018-04-29T05:40:05.509Z,78.75
2018-04-29T05:41:05.688Z,78.75
2018-04-29T05:42:05.768Z,78.75
2018-04-29T05:43:05.923Z,84.38
2018-04-29T05:44:06.048Z,84.38
2018-04-29T05:45:06.183Z,84.38
2018-04-29T05:46:06.319Z,84.38
2018-04-29T05:47:06.475Z,84.38
2018-04-29T05:48:06.613Z,84.38
2018-04-29T05:49:06.743Z,84.38
2018-04-29T05:50:06.936Z,84.38
2018-04-29T05:51:07.055Z,84.38
2018-04-29T05:52:07.185Z,84.38
2018-04-29T05:53:07.393Z,84.38
2018-04-29T05:54:07.426Z,84.38
2018-04-29T05:55:07.548Z,84.38
2018-04-29T05:56:07.680Z,84.38
2018-04-29T05:57:07.811Z,84.38
2018-04-29T05:58:08.013Z,84.38
2018-04-29T05:59:08.099Z,84.38
2018-04-29T06:00:08.233Z,84.38
2018-04-29T06:01:08.377Z,84.38
2018-04-29T06:02:08.527Z,84.38
2018-04-29T06:03:08.656Z,84.38
2018-04-29T06:04:08.786Z,84.38
2018-04-29T06:05:08.923Z,84.38
2018-04-29T06:06:09.103Z,84.38
2018-04-29T06:07:09.200Z,84.38
2018-04-29T06:08:09.333Z,84.38
2018-04-29T06:09:09.469Z,90.00
2018-04-29T06:10:09.608Z,90.00
2018-04-29T06:11:09.744Z,90.00
2018-04-29T06:12:09.878Z,90.00
2018-04-29T06:13:10.016Z,95.63
2018-04-29T06:14:10.182Z,90.00
2018-04-29T06:15:10.290Z,90.00
2018-04-29T06:16:10.426Z,90.00
2018-04-29T06:17:10.569Z,90.00
2018-04-29T06:18:10.697Z,95.63
2018-04-29T06:19:11.547Z,95.63
2018-04-29T06:20:10.957Z,95.63
2018-04-29T06:21:11.095Z,95.63
2018-04-29T06:22:11.236Z,95.63
2018-04-29T06:23:11.369Z,101.25
2018-04-29T06:24:11.502Z,106.88
2018-04-29T06:25:11.638Z,101.25
2018-04-29T06:26:11.841Z,106.88
2018-04-29T06:27:11.920Z,90.00
2018-04-29T06:28:12.057Z,112.50
2018-04-29T06:29:12.193Z,118.13
2018-04-29T06:30:12.344Z,118.13
2018-04-29T06:31:12.478Z,123.75
2018-04-29T06:32:12.611Z,129.38
2018-04-29T06:33:12.749Z,140.63
2018-04-29T06:34:12.883Z,140.63
2018-04-29T06:35:13.017Z,140.63
2018-04-29T06:36:13.153Z,146.25
2018-04-29T06:37:13.295Z,146.25
2018-04-29T06:38:13.438Z,146.25
2018-04-29T06:39:13.577Z,146.25
2018-04-29T06:40:13.717Z,140.63
2018-04-29T06:41:13.855Z,146.25
2018-04-29T06:42:13.995Z,129.38
2018-04-29T06:43:14.131Z,129.38
2018-04-29T06:44:14.305Z,118.13
2018-04-29T06:45:14.420Z,112.50
2018-04-29T06:46:14.559Z,112.50
2018-04-29T06:47:14.705Z,112.50
2018-04-29T06:48:14.853Z,112.50
2018-04-29T06:49:14.985Z,106.88
2018-04-29T06:50:15.126Z,112.50
2018-04-29T06:51:15.306Z,123.75
2018-04-29T06:52:15.453Z,118.13
2018-04-29T06:53:15.578Z,106.88
2018-04-29T06:54:15.714Z,129.38
2018-04-29T06:55:15.852Z,129.38
2018-04-29T06:56:15.975Z,118.13
2018-04-29T06:57:16.120Z,123.75
2018-04-29T06:58:16.252Z,140.63
2018-04-29T06:59:16.416Z,140.63
2018-04-29T07:00:16.549Z,140.63
2018-04-29T07:01:16.681Z,135.00
2018-04-29T07:02:16.820Z,112.50
2018-04-29T07:03:17.540Z,118.13
2018-04-29T07:04:17.142Z,135.00
2018-04-29T07:05:17.285Z,129.38
2018-04-29T07:06:17.440Z,129.38
2018-04-29T07:07:17.573Z,112.50
2018-04-29T07:08:17.761Z,123.75
2018-04-29T07:09:17.854Z,123.75
2018-04-29T07:10:18.004Z,123.75
2018-04-29T07:11:18.135Z,123.75
2018-04-29T07:12:18.282Z,123.75
2018-04-29T07:13:18.419Z,129.38
2018-04-29T07:14:18.594Z,129.38
2018-04-29T07:15:18.719Z,135.00
2018-04-29T07:16:18.861Z,140.63
2018-04-29T07:17:18.994Z,151.88
2018-04-29T07:18:19.146Z,151.88
2018-04-29T07:19:19.286Z,157.50
2018-04-29T07:20:19.423Z,163.13
2018-04-29T07:21:19.588Z,174.38
2018-04-29T07:22:19.723Z,185.63
2018-04-29T07:23:19.864Z,191.25
2018-04-29T07:24:20.008Z,202.50
2018-04-29T07:25:20.160Z,208.13
2018-04-29T07:26:20.296Z,208.13
2018-04-29T07:27:20.430Z,208.13
2018-04-29T07:28:20.572Z,208.13
2018-04-29T07:29:20.713Z,191.25
2018-04-29T07:30:20.847Z,202.50
2018-04-29T07:31:20.989Z,185.63
2018-04-29T07:32:21.131Z,185.63
2018-04-29T07:33:21.273Z,168.75
2018-04-29T07:34:21.408Z,174.38
2018-04-29T07:35:21.544Z,185.63
2018-04-29T07:36:21.689Z,151.88
2018-04-29T07:37:21.827Z,151.88
2018-04-29T07:38:21.961Z,174.38
2018-04-29T07:39:22.097Z,174.38
2018-04-29T07:40:22.227Z,151.88
2018-04-29T07:41:22.374Z,168.75
2018-04-29T07:42:22.514Z,163.13
2018-04-29T07:43:22.650Z,168.75
2018-04-29T07:44:22.790Z,196.88
2018-04-29T07:45:22.936Z,196.88
2018-04-29T07:46:23.081Z,196.88
2018-04-29T07:47:23.256Z,196.88
2018-04-29T07:48:23.389Z,196.88
2018-04-29T07:49:23.530Z,191.25
2018-04-29T07:50:23.677Z,185.63
2018-04-29T07:51:23.819Z,185.63
2018-04-29T07:52:24.047Z,185.63
2018-04-29T07:53:24.092Z,191.25
2018-04-29T07:54:24.241Z,191.25
2018-04-29T07:55:24.369Z,191.25
2018-04-29T07:56:24.530Z,185.63
2018-04-29T07:57:24.666Z,185.63
2018-04-29T07:58:24.797Z,185.63
2018-04-29T07:59:25.019Z,185.63
2018-04-29T08:00:25.154Z,185.63
2018-04-29T08:01:25.289Z,180.00
2018-04-29T08:02:25.424Z,180.00
2018-04-29T08:03:25.561Z,180.00
2018-04-29T08:04:25.708Z,185.63
2018-04-29T08:05:25.842Z,185.63
2018-04-29T08:06:25.993Z,174.38
2018-04-29T08:07:26.128Z,185.63
2018-04-29T08:08:26.284Z,185.63
2018-04-29T08:09:26.420Z,191.25
2018-04-29T08:10:26.563Z,174.38
2018-04-29T08:11:26.708Z,163.13
2018-04-29T08:12:26.888Z,180.00
2018-04-29T08:13:26.992Z,185.63
2018-04-29T08:14:27.148Z,213.75
2018-04-29T08:15:27.301Z,225.00
2018-04-29T08:16:27.450Z,225.00
2018-04-29T08:17:27.592Z,230.63
2018-04-29T08:18:27.727Z,225.00
2018-04-29T08:19:27.869Z,208.13
2018-04-29T08:20:28.007Z,213.75
2018-04-29T08:21:28.144Z,208.13
2018-04-29T08:22:28.281Z,191.25
2018-04-29T08:23:28.416Z,180.00
2018-04-29T08:24:28.559Z,174.38
2018-04-29T08:25:28.692Z,174.38
2018-04-29T08:26:28.834Z,168.75
2018-04-29T08:27:28.975Z,157.50
2018-04-29T08:28:29.112Z,151.88
2018-04-29T08:29:29.254Z,140.63
2018-04-29T08:30:29.389Z,140.63
2018-04-29T08:31:29.527Z,129.38
2018-04-29T08:32:29.660Z,123.75
2018-04-29T08:33:29.798Z,118.13
2018-04-29T08:34:29.939Z,118.13
2018-04-29T08:35:30.076Z,112.50
2018-04-29T08:36:30.218Z,112.50
2018-04-29T08:37:30.365Z,112.50
2018-04-29T08:38:30.496Z,112.50
2018-04-29T08:39:30.638Z,112.50
2018-04-29T08:40:30.780Z,112.50
2018-04-29T08:41:30.916Z,118.13
2018-04-29T08:42:31.065Z,118.13
2018-04-29T08:43:31.205Z,118.13
2018-04-29T08:44:31.339Z,123.75
2018-04-29T08:45:31.476Z,129.38
2018-04-29T08:46:31.618Z,135.00
2018-04-29T08:47:31.757Z,135.00
2018-04-29T08:48:31.919Z,135.00
2018-04-29T08:49:32.117Z,140.63
2018-04-29T08:50:32.193Z,140.63
2018-04-29T08:51:32.336Z,146.25
2018-04-29T08:52:32.472Z,151.88
2018-04-29T08:53:32.630Z,151.88
2018-04-29T08:54:32.755Z,157.50
2018-04-29T08:55:32.906Z,163.13
2018-04-29T08:56:33.076Z,168.75
2018-04-29T08:57:33.204Z,174.38
2018-04-29T08:58:33.347Z,180.00
2018-04-29T08:59:33.513Z,185.63
2018-04-29T09:00:33.654Z,196.88
2018-04-29T09:01:33.795Z,202.50
2018-04-29T09:02:33.944Z,213.75
2018-04-29T09:03:34.156Z,225.00
2018-04-29T09:04:34.221Z,241.88
2018-04-29T09:05:34.386Z,247.50
2018-04-29T09:06:34.528Z,247.50
2018-04-29T09:07:34.670Z,247.50
2018-04-29T09:08:34.814Z,236.25
2018-04-29T09:09:35.022Z,219.38
2018-04-29T09:10:35.115Z,230.63
2018-04-29T09:11:35.257Z,219.38
2018-04-29T09:12:35.399Z,219.38
2018-04-29T09:13:35.574Z,258.75
2018-04-29T09:14:35.716Z,230.63
2018-04-29T09:15:35.856Z,225.00
2018-04-29T09:16:35.993Z,230.63
2018-04-29T09:17:36.243Z,241.88
2018-04-29T09:18:36.294Z,241.88
2018-04-29T09:19:36.437Z,247.50
2018-04-29T09:20:36.641Z,247.50
2018-04-29T09:21:36.729Z,258.75
2018-04-29T09:22:36.876Z,253.13
2018-04-29T09:23:37.025Z,275.63
2018-04-29T09:24:37.163Z,264.38
2018-04-29T09:25:37.347Z,253.13
2018-04-29T09:26:37.493Z,253.13
2018-04-29T09:27:37.639Z,258.75
2018-04-29T09:28:37.798Z,264.38
2018-04-29T09:29:37.933Z,270.00
2018-04-29T09:30:38.065Z,298.13
2018-04-29T09:31:38.231Z,292.50
2018-04-29T09:32:38.372Z,241.88
2018-04-29T09:33:38.517Z,247.50
2018-04-29T09:34:38.656Z,270.00
2018-04-29T09:35:38.803Z,219.38
2018-04-29T09:36:38.935Z,236.25
2018-04-29T09:37:39.084Z,213.75
2018-04-29T09:38:39.223Z,247.50
2018-04-29T09:39:39.361Z,247.50
2018-04-29T09:40:39.514Z,253.13
2018-04-29T09:41:39.651Z,253.13
2018-04-29T09:42:39.793Z,264.38
2018-04-29T09:43:39.944Z,275.63
2018-04-29T09:44:40.078Z,292.50
2018-04-29T09:45:40.217Z,303.75
2018-04-29T09:46:40.356Z,315.00
2018-04-29T09:47:40.493Z,320.63
2018-04-29T09:48:40.705Z,343.13
2018-04-29T09:49:40.786Z,343.13
2018-04-29T09:50:40.937Z,354.38
2018-04-29T09:51:41.081Z,348.75
2018-04-29T09:52:41.221Z,326.25
2018-04-29T09:53:41.362Z,343.13
2018-04-29T09:54:41.511Z,337.50
2018-04-29T09:55:41.661Z,365.63
2018-04-29T09:56:41.799Z,354.38
2018-04-29T09:57:41.933Z,343.13
2018-04-29T09:58:42.076Z,348.75
2018-04-29T09:59:42.217Z,371.25
2018-04-29T10:00:42.352Z,343.13
2018-04-29T10:01:42.502Z,337.50
2018-04-29T10:02:42.646Z,388.13
2018-04-29T10:03:42.774Z,371.25
2018-04-29T10:04:42.915Z,331.88
2018-04-29T10:05:43.061Z,343.13
2018-04-29T10:06:43.193Z,348.75
2018-04-29T10:07:43.335Z,354.38
2018-04-29T10:08:43.522Z,348.75
2018-04-29T10:09:43.638Z,331.88
2018-04-29T10:10:43.776Z,315.00
2018-04-29T10:11:43.925Z,326.25
2018-04-29T10:12:44.080Z,298.13
2018-04-29T10:13:44.230Z,286.88
2018-04-29T10:14:44.370Z,292.50
2018-04-29T10:15:44.515Z,343.13
2018-04-29T10:16:44.685Z,354.38
2018-04-29T10:17:44.818Z,348.75
2018-04-29T10:18:44.976Z,354.38
2018-04-29T10:19:45.111Z,331.88
2018-04-29T10:20:45.241Z,382.50
2018-04-29T10:21:45.385Z,405.00
2018-04-29T10:22:45.548Z,416.25
2018-04-29T10:23:45.687Z,365.63
2018-04-29T10:24:45.824Z,343.13
2018-04-29T10:25:45.986Z,337.50
2018-04-29T10:26:46.121Z,393.75
2018-04-29T10:27:46.260Z,410.63
2018-04-29T10:28:46.403Z,337.50
2018-04-29T10:29:46.563Z,303.75
2018-04-29T10:30:46.703Z,281.25
2018-04-29T10:31:46.841Z,270.00
2018-04-29T10:32:47.068Z,264.38
2018-04-29T10:33:47.130Z,264.38
2018-04-29T10:34:47.267Z,258.75
2018-04-29T10:35:47.408Z,258.75
2018-04-29T10:36:47.554Z,253.13
2018-04-29T10:37:47.726Z,247.50
2018-04-29T10:38:47.862Z,236.25
2018-04-29T10:39:48.000Z,236.25
2018-04-29T10:40:48.140Z,236.25
2018-04-29T10:41:48.299Z,236.25
2018-04-29T10:42:48.435Z,241.88
2018-04-29T10:43:48.577Z,241.88
2018-04-29T10:44:48.718Z,247.50
2018-04-29T10:45:48.932Z,258.75
2018-04-29T10:46:49.032Z,275.63
2018-04-29T10:47:49.171Z,292.50
2018-04-29T10:48:49.316Z,315.00
2018-04-29T10:49:49.457Z,343.13
2018-04-29T10:50:49.598Z,371.25
2018-04-29T10:51:49.739Z,399.38
2018-04-29T10:52:49.880Z,450.00
2018-04-29T10:53:50.017Z,455.63
2018-04-29T10:54:50.157Z,483.75
2018-04-29T10:55:50.308Z,495.00
2018-04-29T10:56:50.448Z,478.13
2018-04-29T10:57:50.603Z,517.50
2018-04-29T10:58:50.789Z,506.25
2018-04-29T10:59:50.884Z,450.00
2018-04-29T11:00:51.019Z,461.25
2018-04-29T11:01:51.161Z,444.38
2018-04-29T11:02:51.301Z,500.63
2018-04-29T11:03:51.451Z,489.38
2018-04-29T11:04:51.592Z,444.38
2018-04-29T11:05:51.737Z,466.88
2018-04-29T11:06:51.880Z,478.13
2018-04-29T11:07:52.018Z,545.63
2018-04-29T11:08:52.176Z,534.38
2018-04-29T11:09:52.315Z,466.88
2018-04-29T11:10:52.458Z,478.13
2018-04-29T11:11:52.606Z,444.38
2018-04-29T11:12:52.744Z,466.88
2018-04-29T11:13:52.903Z,483.75
2018-04-29T11:14:53.049Z,495.00
2018-04-29T11:15:53.210Z,556.88
2018-04-29T11:16:53.377Z,579.38
2018-04-29T11:17:53.517Z,483.75
2018-04-29T11:18:53.660Z,466.88
2018-04-29T11:19:53.804Z,478.13
2018-04-29T11:20:53.970Z,573.75
2018-04-29T11:21:54.103Z,495.00
2018-04-29T11:22:54.242Z,472.50
2018-04-29T11:23:54.402Z,438.75
2018-04-29T11:24:54.541Z,421.88
2018-04-29T11:25:54.701Z,472.50
2018-04-29T11:26:54.827Z,534.38
2018-04-29T11:27:54.989Z,540.00
2018-04-29T11:28:55.127Z,551.25
2018-04-29T11:29:55.284Z,540.00
2018-04-29T11:30:55.430Z,506.25
2018-04-29T11:31:55.599Z,438.75
2018-04-29T11:32:55.732Z,450.00
2018-04-29T11:33:55.896Z,517.50
2018-04-29T11:34:56.022Z,466.88
2018-04-29T11:35:56.164Z,450.00
2018-04-29T11:36:56.307Z,517.50
2018-04-29T11:37:56.447Z,551.25
2018-04-29T11:38:56.925Z,545.63
2018-04-29T11:39:56.700Z,523.13
2018-04-29T11:40:56.842Z,540.00
2018-04-29T11:41:56.986Z,478.13
2018-04-29T11:42:57.149Z,444.38
2018-04-29T11:43:57.293Z,421.88
2018-04-29T11:44:57.434Z,371.25
2018-04-29T11:45:57.685Z,348.75
2018-04-29T11:46:57.777Z,405.00
2018-04-29T11:47:57.927Z,393.75
2018-04-29T11:48:58.190Z,478.13
2018-04-29T11:49:58.205Z,461.25
2018-04-29T11:50:58.347Z,450.00
2018-04-29T11:51:58.517Z,450.00
2018-04-29T11:52:58.653Z,433.13
2018-04-29T11:53:58.794Z,444.38
2018-04-29T11:54:58.946Z,438.75
2018-04-29T11:55:59.090Z,360.00
2018-04-29T11:56:59.231Z,433.13
2018-04-29T11:57:59.381Z,438.75
2018-04-29T11:58:59.563Z,433.13
2018-04-29T11:59:59.674Z,433.13
2018-04-29T12:00:59.818Z,438.75
2018-04-29T12:02:00.045Z,438.75
2018-04-29T12:03:00.118Z,438.75
2018-04-29T12:04:00.264Z,433.13
2018-04-29T12:05:00.412Z,438.75
2018-04-29T12:06:00.566Z,438.75
2018-04-29T12:07:00.696Z,444.38
2018-04-29T12:08:00.845Z,444.38
2018-04-29T12:09:00.991Z,444.38
2018-04-29T12:10:01.144Z,444.38
2018-04-29T12:11:01.286Z,444.38
2018-04-29T12:12:01.433Z,450.00
2018-04-29T12:13:01.568Z,450.00
2018-04-29T12:14:01.720Z,450.00
2018-04-29T12:15:01.867Z,450.00
2018-04-29T12:16:02.006Z,438.75
2018-04-29T12:17:02.172Z,393.75
2018-04-29T12:18:02.376Z,433.13
2018-04-29T12:19:02.496Z,444.38
2018-04-29T12:20:02.634Z,410.63
2018-04-29T12:21:02.791Z,444.38
2018-04-29T12:22:02.938Z,433.13
2018-04-29T12:23:03.116Z,444.38
2018-04-29T12:24:03.255Z,433.13
2018-04-29T12:25:03.397Z,438.75
2018-04-29T12:26:03.542Z,438.75
2018-04-29T12:27:03.696Z,438.75
2018-04-29T12:28:03.842Z,438.75
2018-04-29T12:29:03.990Z,444.38
2018-04-29T12:30:04.143Z,450.00
2018-04-29T12:31:04.284Z,450.00
2018-04-29T12:32:04.435Z,444.38
2018-04-29T12:33:04.583Z,450.00
2018-04-29T12:34:04.733Z,444.38
2018-04-29T12:35:04.876Z,438.75
2018-04-29T12:36:05.014Z,444.38
2018-04-29T12:37:05.163Z,444.38
2018-04-29T12:38:05.304Z,450.00
2018-04-29T12:39:05.449Z,438.75
2018-04-29T12:40:05.615Z,444.38
2018-04-29T12:41:05.757Z,455.63
2018-04-29T12:42:05.902Z,444.38
2018-04-29T12:43:06.059Z,444.38
2018-04-29T12:44:06.205Z,455.63
2018-04-29T12:45:06.353Z,455.63
2018-04-29T12:46:06.494Z,455.63
2018-04-29T12:47:06.666Z,455.63
2018-04-29T12:48:06.795Z,455.63
2018-04-29T12:49:06.993Z,455.63
2018-04-29T12:50:07.099Z,455.63
2018-04-29T12:51:07.247Z,461.25
2018-04-29T12:52:07.420Z,461.25